Главная страница
METAR-TAF:

METAR-TAF

Аэропорты :

Адыяман, Турция

широта: 37-43-54N, долгота: 38-28-08E, высота над уровнем моря: 675 м

Текущие метеонаблюдения

Эта сводка был подготовлена 9 часа и 15 минут назад, в 12:50 UTC
Ветер 10 Узел от юго-западный
Температура 36°C
Влажность 14%
Давление 1009 hPa
Видимость 10 км и более
Отдельные облака на высоте 4000 фута

METAR: LTCP 191250Z 23010KT 9999 SCT040 36/04 Q1009

Время: 01:05 (22:05 UTC)

Прогноз

Эта сводка был подготовлена 8 часа и 25 минут назад, в 13:40 UTC
Прогноз действительный с 19-го 15 UTC до 19-го 24 UTC
Ветер 8 Узел от южный-юго-западный
Видимость 10 км и более
Отдельные облака на высоте 4000 фута
изменения
С 19-го 17 UTC до 19-го 19 UTC
Видимость 10 км и более
Нет облачности ниже 1500 м, и нет кучево-дождевой облачности

TAF: LTCP 191340Z 1915/1924 21008KT 9999 SCT040 BECMG 1917/1919 CAVOK

Метеонаблюдения и прогнозы для более 4000 аэропортов (сводки METAR и TAF).

Имеющиеся станции представлены на карте желтыми и красными точками.

Чтобы увидеть название станции, наведите на нее мышь.

Затем щелкните, чтобы увидеть метеонаблюдения и метеопрогнозы.

Управление картой: чтобы увеличить масштаб, щелкните зеленые кнопки с черным крестиком; чтобы уменьшить масштаб, щелкните зеленую кнопку с тире; для просмотра соседних карт щелкайте зеленые стрелки.


METAR-TAF: